createdAt,value
2018-12-17T00:00:59.823Z,88.49
2018-12-17T00:11:19.081Z,88.80
2018-12-17T00:21:39.760Z,88.77
2018-12-17T00:31:59.353Z,88.57
2018-12-17T00:42:19.408Z,89.43
2018-12-17T00:52:38.641Z,89.43
2018-12-17T01:02:59.270Z,89.27
2018-12-17T01:13:19.166Z,89.27
2018-12-17T01:23:38.693Z,89.12
2018-12-17T01:33:58.634Z,88.49
2018-12-17T01:44:18.401Z,89.31
2018-12-17T01:54:37.814Z,89.23
2018-12-17T02:04:57.724Z,89.23
2018-12-17T02:15:23.351Z,89.31
2018-12-17T02:25:43.398Z,89.46
2018-12-17T02:36:02.971Z,89.22
2018-12-17T02:46:22.571Z,89.11
2018-12-17T02:56:41.762Z,89.59
2018-12-17T03:07:01.373Z,89.55
2018-12-17T03:17:21.345Z,90.58
2018-12-17T03:27:41.042Z,91.06
2018-12-17T03:38:02.062Z,91.54
2018-12-17T03:48:21.577Z,91.88
2018-12-17T03:58:41.026Z,91.90
2018-12-17T04:09:00.612Z,92.19
2018-12-17T04:19:20.529Z,92.38
2018-12-17T04:29:39.893Z,92.07
2018-12-17T04:39:59.609Z,91.96
2018-12-17T04:50:18.972Z,92.22
2018-12-17T05:00:38.066Z,92.15
2018-12-17T05:10:57.308Z,91.91
2018-12-17T05:21:17.047Z,91.67
2018-12-17T05:31:36.753Z,91.24
2018-12-17T05:41:56.042Z,91.47
2018-12-17T05:52:16.345Z,91.25
2018-12-17T06:02:35.456Z,91.25
2018-12-17T06:12:55.791Z,91.16
2018-12-17T06:23:16.383Z,91.29
2018-12-17T06:33:37.165Z,91.33
2018-12-17T06:43:57.569Z,90.49
2018-12-17T06:54:18.441Z,90.49
2018-12-17T07:04:37.922Z,90.73
2018-12-17T07:14:57.932Z,90.57
2018-12-17T07:25:17.512Z,90.17
2018-12-17T07:35:37.201Z,90.17
2018-12-17T07:45:56.930Z,90.43
2018-12-17T07:56:16.685Z,90.33
2018-12-17T08:06:37.115Z,89.73
2018-12-17T08:16:56.494Z,88.21
2018-12-17T08:27:15.992Z,88.21
2018-12-17T08:37:35.787Z,87.61
2018-12-17T08:47:55.334Z,87.61
2018-12-17T08:58:14.816Z,86.97
2018-12-17T09:08:35.700Z,84.91
2018-12-17T09:18:56.019Z,83.79
2018-12-17T09:29:16.129Z,82.62
2018-12-17T09:39:35.727Z,82.78
2018-12-17T09:49:55.574Z,83.12
2018-12-17T10:00:15.474Z,82.30
2018-12-17T10:10:34.816Z,81.86
2018-12-17T10:20:54.306Z,83.75
2018-12-17T10:31:13.755Z,82.67
2018-12-17T10:41:33.678Z,80.78
2018-12-17T10:51:53.211Z,80.03
2018-12-17T11:02:16.676Z,79.74
2018-12-17T11:12:37.595Z,79.48
2018-12-17T11:22:56.789Z,79.46
2018-12-17T11:33:15.915Z,79.91
2018-12-17T11:43:35.906Z,80.86
2018-12-17T11:54:00.924Z,80.89
2018-12-17T12:04:22.727Z,81.97
2018-12-17T12:14:44.512Z,82.41
2018-12-17T12:25:06.307Z,82.38
2018-12-17T12:35:25.825Z,83.16
2018-12-17T12:45:48.117Z,83.53
2018-12-17T12:56:08.668Z,83.51
2018-12-17T13:06:29.719Z,83.42
2018-12-17T13:16:50.051Z,84.50
2018-12-17T13:27:11.035Z,85.35
2018-12-17T13:37:30.564Z,85.17
2018-12-17T13:47:51.081Z,86.17
2018-12-17T13:58:11.215Z,86.12
2018-12-17T14:08:30.790Z,86.98
2018-12-17T14:19:09.567Z,85.46
2018-12-17T14:29:29.712Z,84.79
2018-12-17T14:39:49.422Z,85.59
2018-12-17T14:50:09.493Z,85.88
2018-12-17T15:00:28.912Z,86.18
2018-12-17T15:10:48.423Z,86.68
2018-12-17T15:21:08.783Z,86.29
2018-12-17T15:31:28.429Z,86.69
2018-12-17T15:41:47.590Z,87.52
2018-12-17T15:52:07.820Z,88.55
2018-12-17T16:02:28.119Z,89.54
2018-12-17T16:12:47.548Z,89.42
2018-12-17T16:23:07.066Z,89.91
2018-12-17T16:33:29.999Z,90.45
2018-12-17T16:43:46.877Z,90.87
2018-12-17T16:54:07.072Z,91.47
2018-12-17T17:04:27.193Z,91.75
2018-12-17T17:14:48.334Z,92.45
2018-12-17T17:25:07.764Z,92.69
2018-12-17T17:35:29.007Z,92.78
2018-12-17T17:45:49.233Z,92.64
2018-12-17T17:56:09.889Z,92.79
2018-12-17T18:06:29.910Z,92.56
2018-12-17T18:16:50.282Z,92.43
2018-12-17T18:27:11.512Z,92.88
2018-12-17T18:37:34.253Z,92.95
2018-12-17T18:47:53.762Z,92.97
2018-12-17T18:58:14.777Z,93.26
2018-12-17T19:08:36.189Z,93.17
2018-12-17T19:18:56.366Z,93.22
2018-12-17T19:29:15.904Z,93.15
2018-12-17T19:39:36.500Z,93.67
2018-12-17T19:49:56.821Z,94.07
2018-12-17T20:00:18.698Z,94.20
2018-12-17T20:10:39.462Z,94.14
2018-12-17T20:20:59.504Z,94.16
2018-12-17T20:31:20.519Z,94.10
2018-12-17T20:41:41.045Z,94.49
2018-12-17T20:52:02.869Z,95.11
2018-12-17T21:02:22.182Z,95.11
2018-12-17T21:12:43.342Z,95.25
2018-12-17T21:23:04.409Z,95.77
2018-12-17T21:33:24.034Z,95.48
2018-12-17T21:43:44.592Z,95.43
2018-12-17T21:54:04.131Z,95.51
2018-12-17T22:04:24.410Z,95.31
2018-12-17T22:14:46.212Z,95.10
2018-12-17T22:25:05.996Z,95.06
2018-12-17T22:35:26.075Z,95.02
2018-12-17T22:45:45.708Z,94.95
2018-12-17T22:56:05.439Z,94.74
2018-12-17T23:06:25.909Z,94.56
2018-12-17T23:17:22.119Z,94.77
2018-12-17T23:27:48.597Z,94.83
2018-12-17T23:38:08.233Z,94.93
2018-12-17T23:48:28.405Z,94.97
2018-12-17T23:58:47.811Z,95.11
